KDVO

Gnoss Field Airport

Novato, California, USA
METAR KDVO 192255Z AUTO 00000KT 10SM CLR 29/15 A2987 RMK AO2
Observed Flight Rules
Aug-19 @ 22:55 UTC (14 minutes ago) Visual Flight Rules
Visibility Clouds
10 miles
  • Clear skies
Temperatures Readings
Current 29°C / 84°F
Dewpoint 15°C / 59°F
Humidity 43%
Altimeter 29.87" Hg
Pressure 1012 hPa
Elevation 1
METAR KDVO 192255Z AUTO 00000KT 10SM CLR 29/15 A2987 RMK AO2
Observed Flight Rules
Aug-19 @ 22:55 UTC
(14 minutes ago)
VFR
Clouds
  • Clear skies
Temperature Dewpoint
29°C / 84°F 15°C / 59°F
Humidity Altimeter Pressure
43% 29.87" Hg 1012 hPa